Time;durP1;ratioP1;P1;durP2;ratioP2;P2;SDS_P1;SDS_P2;PMS_P1;PMS_P2;Temp;Humidity;BMP_temperature;BMP_pressure;BME280_temperature;BME280_humidity;BME280_pressure;Samples;Min_cycle;Max_cycle;Signal;HPM_P1;HPM_P2
2022/01/04 00:00:17;;;;;;;2.40;2.20;;;;;;;10.19;81.93;97459.78;4123120;28;20281;-58
2022/01/04 00:02:19;;;;;;;1.55;1.45;;;;;;;10.17;81.84;97450.22;4112152;28;20698;-56
2022/01/04 00:04:21;;;;;;;1.75;1.40;;;;;;;10.14;82.06;97445.31;4125155;28;20268;-57
2022/01/04 00:06:22;;;;;;;1.13;1.02;;;;;;;10.12;82.06;97436.53;4109454;28;20249;-57
2022/01/04 00:08:26;;;;;;;0.88;0.88;;;;;;;10.15;81.95;97427.81;4109772;28;20285;-57
2022/01/04 00:10:29;;;;;;;1.30;1.20;;;;;;;10.15;82.20;97425.09;4109048;28;20210;-57
2022/01/04 00:14:51;;;;;;;1.23;1.23;;;;;;;10.07;82.38;97409.25;4124721;28;20207;-57
2022/01/04 00:16:55;;;;;;;1.33;1.23;;;;;;;10.10;82.26;97398.56;4107739;28;20221;-57
2022/01/04 00:18:57;;;;;;;1.13;1.02;;;;;;;10.14;82.02;97409.78;4107144;28;20227;-57
2022/01/04 00:20:58;;;;;;;1.33;1.23;;;;;;;10.14;81.93;97401.59;4110491;28;20300;-58
2022/01/04 00:23:00;;;;;;;1.40;1.30;;;;;;;10.20;81.58;97384.06;4125672;28;20206;-56
2022/01/04 00:25:02;;;;;;;1.67;1.58;;;;;;;10.20;81.75;97400.44;4093795;28;20757;-58
2022/01/04 00:27:04;;;;;;;1.92;1.73;;;;;;;10.22;81.50;97385.41;4123308;28;20990;-56
2022/01/04 00:29:06;;;;;;;2.17;1.98;;;;;;;10.25;81.28;97386.78;4121828;28;20226;-57
2022/01/04 00:31:08;;;;;;;1.65;1.55;;;;;;;10.30;81.16;97375.84;4109095;28;20277;-57
2022/01/04 00:33:12;;;;;;;2.05;1.45;;;;;;;10.25;81.14;97360.28;4107385;28;20644;-57
2022/01/04 00:35:14;;;;;;;2.03;1.92;;;;;;;10.29;81.30;97349.63;4105799;28;20249;-57
2022/01/04 00:37:16;;;;;;;1.90;1.40;;;;;;;10.26;81.17;97364.66;4126900;28;20506;-57
2022/01/04 00:39:17;;;;;;;2.20;1.83;;;;;;;10.29;81.08;97360.56;4108017;28;20318;-57
2022/01/04 00:41:19;;;;;;;2.25;2.05;;;;;;;10.30;80.75;97351.25;4108947;28;20218;-57
2022/01/04 00:43:21;;;;;;;1.90;1.70;;;;;;;10.25;81.01;97354.81;4124880;28;20580;-57
2022/01/04 00:45:22;;;;;;;4.10;1.77;;;;;;;10.23;80.76;97357.00;4103857;28;20372;-58
2022/01/04 00:47:38;;;;;;;1.90;1.80;;;;;;;10.27;80.76;97340.88;4119171;28;20703;-58
2022/01/04 00:49:40;;;;;;;2.00;1.90;;;;;;;10.28;80.88;97337.84;4108794;28;20245;-56
2022/01/04 00:51:52;;;;;;;1.83;1.70;;;;;;;10.27;80.68;97335.41;4122469;28;20206;-56
2022/01/04 00:53:54;;;;;;;1.77;1.67;;;;;;;10.24;80.92;97325.00;4104620;28;20230;-58
2022/01/04 00:55:56;;;;;;;2.15;2.05;;;;;;;10.26;80.87;97326.38;4122125;28;20607;-56
2022/01/04 00:57:59;;;;;;;2.05;1.95;;;;;;;10.23;80.91;97312.44;4103306;28;20285;-54
2022/01/04 01:00:01;;;;;;;2.13;1.67;;;;;;;10.21;81.23;97311.91;4109087;28;20231;-59
2022/01/04 01:02:03;;;;;;;1.77;1.67;;;;;;;10.20;80.89;97304.78;4104929;28;20211;-57
2022/01/04 01:04:06;;;;;;;3.15;1.83;;;;;;;10.21;80.76;97303.72;4103925;28;20245;-58
2022/01/04 01:06:09;;;;;;;1.85;1.63;;;;;;;10.17;80.83;97308.09;4104896;28;20305;-57
2022/01/04 01:08:11;;;;;;;4.65;2.22;;;;;;;10.17;81.00;97297.16;4103517;28;20775;-57
2022/01/04 01:12:25;;;;;;;4.95;1.55;;;;;;;10.18;80.59;97276.91;4120982;28;20385;-56
2022/01/04 01:14:27;;;;;;;1.50;1.40;;;;;;;10.18;80.68;97261.34;4117443;28;20214;-57
2022/01/04 01:16:29;;;;;;;2.15;1.95;;;;;;;10.16;80.58;97271.72;4105115;28;20222;-55
2022/01/04 01:18:30;;;;;;;2.38;2.20;;;;;;;10.14;80.64;97278.59;4103677;28;20234;-60
2022/01/04 01:20:33;;;;;;;1.90;1.65;;;;;;;10.17;80.75;97258.88;4104349;28;20234;-58
2022/01/04 01:22:36;;;;;;;1.92;1.75;;;;;;;10.17;80.97;97270.66;4101635;28;20232;-57
2022/01/04 01:24:38;;;;;;;1.90;1.77;;;;;;;10.16;80.76;97262.72;4120084;28;20716;-57
2022/01/04 01:26:40;;;;;;;2.78;2.08;;;;;;;10.07;81.02;97256.19;4103736;28;20301;-56
2022/01/04 01:28:41;;;;;;;2.80;1.92;;;;;;;10.10;80.93;97252.88;4099928;28;20250;-56
2022/01/04 01:30:44;;;;;;;1.55;1.45;;;;;;;10.17;80.77;97250.69;4120599;28;22333;-58
2022/01/04 01:32:45;;;;;;;2.13;1.92;;;;;;;10.13;80.93;97253.16;4119888;28;20232;-55
2022/01/04 01:34:47;;;;;;;1.80;1.55;;;;;;;10.10;80.62;97241.97;4102080;28;20230;-57
2022/01/04 01:36:49;;;;;;;2.80;1.83;;;;;;;10.09;81.05;97254.78;4097805;28;20239;-55
2022/01/04 01:38:51;;;;;;;3.10;2.15;;;;;;;10.17;80.92;97248.78;4121886;28;20895;-55
2022/01/04 01:40:53;;;;;;;2.03;1.92;;;;;;;10.12;80.78;97256.16;4123652;28;20534;-58
2022/01/04 01:42:56;;;;;;;3.72;2.30;;;;;;;10.11;80.92;97247.16;4119750;28;20249;-58
2022/01/04 01:44:57;;;;;;;3.53;2.10;;;;;;;10.06;81.32;97235.41;4106950;28;20234;-57
2022/01/04 01:46:59;;;;;;;2.40;2.20;;;;;;;10.07;81.27;97231.59;4103927;28;20257;-60
2022/01/04 01:49:01;;;;;;;2.58;2.35;;;;;;;10.05;80.90;97228.31;4107335;28;20226;-55
2022/01/04 01:51:03;;;;;;;2.40;2.20;;;;;;;10.01;80.75;97235.41;4105344;28;20230;-57
2022/01/04 01:53:05;;;;;;;2.95;2.75;;;;;;;10.00;81.09;97231.00;4086972;28;20270;-59
2022/01/04 01:55:08;;;;;;;6.65;2.70;;;;;;;10.06;81.24;97228.03;4103867;28;20211;-57
2022/01/04 01:57:09;;;;;;;2.63;2.42;;;;;;;10.02;81.40;97223.38;4124517;28;20602;-56
2022/01/04 01:59:14;;;;;;;2.45;2.25;;;;;;;10.02;81.22;97217.91;4100347;28;20989;-57
2022/01/04 02:01:17;;;;;;;2.92;2.72;;;;;;;9.99;81.17;97202.06;4101207;28;20240;-58
2022/01/04 02:03:19;;;;;;;3.13;2.45;;;;;;;9.99;81.45;97202.88;4088163;28;20243;-55
2022/01/04 02:05:21;;;;;;;2.70;2.50;;;;;;;10.02;81.30;97201.50;4107587;28;22611;-58
2022/01/04 02:07:23;;;;;;;5.10;2.15;;;;;;;9.93;81.56;97203.16;4121518;28;20259;-57
2022/01/04 02:09:26;;;;;;;2.97;2.65;;;;;;;9.91;81.67;97192.53;4105602;28;20235;-57
2022/01/04 02:11:29;;;;;;;1.98;1.88;;;;;;;9.93;81.46;97189.50;4122746;28;20206;-55
2022/01/04 02:13:30;;;;;;;4.00;2.58;;;;;;;9.93;81.48;97192.22;4122043;28;20249;-57
2022/01/04 02:15:33;;;;;;;3.70;2.75;;;;;;;9.94;81.28;97193.91;4109008;28;20282;-55
2022/01/04 02:17:35;;;;;;;2.28;2.08;;;;;;;9.87;81.66;97176.97;4107213;28;20604;-55
2022/01/04 02:19:37;;;;;;;2.90;2.70;;;;;;;9.87;81.41;97175.06;4106203;28;20202;-56
2022/01/04 02:21:38;;;;;;;4.25;2.97;;;;;;;9.90;81.02;97166.31;4118209;28;20241;-56
2022/01/04 02:23:40;;;;;;;3.08;2.70;;;;;;;9.86;81.24;97158.94;4105301;28;20226;-57
2022/01/04 02:25:42;;;;;;;3.08;2.15;;;;;;;9.84;81.45;97166.59;4106716;28;20242;-57
2022/01/04 02:27:44;;;;;;;3.92;2.83;;;;;;;9.85;81.33;97155.41;4106368;28;20218;-58
2022/01/04 02:29:47;;;;;;;4.10;2.53;;;;;;;9.84;81.41;97139.28;4103474;28;20613;-57
2022/01/04 02:31:48;;;;;;;2.35;2.15;;;;;;;9.85;81.58;97149.94;4106186;28;20210;-58
2022/01/04 02:33:50;;;;;;;2.55;2.35;;;;;;;9.78;81.86;97140.38;4103347;28;20258;-56
2022/01/04 02:35:52;;;;;;;3.10;2.78;;;;;;;9.85;81.38;97135.44;4104480;28;20199;-57
2022/01/04 02:37:55;;;;;;;3.08;2.78;;;;;;;9.87;81.09;97122.34;4105121;28;20309;-58
2022/01/04 02:39:57;;;;;;;3.15;2.40;;;;;;;9.85;81.24;97124.50;4105499;28;20210;-57
2022/01/04 02:41:59;;;;;;;3.03;2.72;;;;;;;9.78;80.99;97119.38;4105048;28;20666;-56
2022/01/04 02:44:00;;;;;;;3.30;3.00;;;;;;;9.85;81.29;97119.06;4106090;28;20215;-56
2022/01/04 02:46:02;;;;;;;3.83;2.70;;;;;;;9.81;81.13;97118.00;4104497;28;20211;-59
2022/01/04 02:48:04;;;;;;;4.53;3.40;;;;;;;9.79;81.71;97120.16;4104979;28;20763;-57
2022/01/04 02:50:07;;;;;;;2.08;1.90;;;;;;;9.81;81.08;97118.00;4107069;28;20211;-59
2022/01/04 02:52:09;;;;;;;2.13;1.92;;;;;;;9.87;80.44;97125.06;4120885;28;20297;-57
2022/01/04 02:54:10;;;;;;;2.60;2.40;;;;;;;9.80;81.01;97105.41;4106390;28;20255;-56
2022/01/04 02:56:14;;;;;;;3.28;2.22;;;;;;;9.80;81.08;97105.41;4121634;28;20207;-58
2022/01/04 02:58:16;;;;;;;2.30;2.05;;;;;;;9.79;81.25;97103.78;4107401;28;20254;-56
2022/01/04 03:00:18;;;;;;;3.33;3.05;;;;;;;9.77;81.01;97111.44;4116395;28;20289;-57
2022/01/04 03:02:20;;;;;;;2.83;1.90;;;;;;;9.80;80.86;97099.94;4103903;28;20249;-57
2022/01/04 03:04:22;;;;;;;1.83;1.73;;;;;;;9.80;81.02;97094.47;4107058;28;20219;-56
2022/01/04 03:06:24;;;;;;;1.90;1.80;;;;;;;9.77;80.67;97095.06;4107775;28;20270;-56
2022/01/04 03:08:26;;;;;;;2.03;1.83;;;;;;;9.76;81.07;97091.50;4103357;28;20231;-55
2022/01/04 03:10:27;;;;;;;2.55;2.28;;;;;;;9.78;80.77;97096.69;4106213;28;20874;-56
2022/01/04 03:12:29;;;;;;;3.40;1.85;;;;;;;9.73;81.06;97089.34;4107182;28;20218;-58
2022/01/04 03:14:31;;;;;;;2.33;2.13;;;;;;;9.80;80.62;97080.81;4107763;28;20258;-56
2022/01/04 03:16:33;;;;;;;2.80;2.08;;;;;;;9.79;81.05;97071.81;4105034;28;20214;-58
2022/01/04 03:18:37;;;;;;;2.28;2.08;;;;;;;9.73;80.87;97061.19;4103177;28;20238;-59
2022/01/04 03:20:39;;;;;;;2.50;2.00;;;;;;;9.77;80.92;97059.53;4106542;28;20203;-55
2022/01/04 03:22:41;;;;;;;1.95;1.83;;;;;;;9.77;80.95;97045.88;4117620;28;20268;-56
2022/01/04 03:24:43;;;;;;;2.47;1.63;;;;;;;9.78;80.73;97048.34;4120549;28;20213;-56
2022/01/04 03:26:45;;;;;;;7.13;2.35;;;;;;;9.74;81.13;97055.44;4107872;28;20293;-56
2022/01/04 03:28:46;;;;;;;1.70;1.60;;;;;;;9.73;80.77;97042.06;4108948;28;20942;-57
2022/01/04 03:30:48;;;;;;;1.77;1.67;;;;;;;9.73;81.04;97044.81;4114959;28;20203;-55
2022/01/04 03:32:50;;;;;;;1.75;1.65;;;;;;;9.74;81.01;97035.53;4108874;28;20210;-57
2022/01/04 03:34:51;;;;;;;1.95;1.30;;;;;;;9.70;81.14;97024.34;4108709;28;20210;-57
2022/01/04 03:36:53;;;;;;;2.40;1.90;;;;;;;9.71;81.25;97025.16;4086917;28;20311;-56
2022/01/04 03:38:56;;;;;;;1.35;1.25;;;;;;;9.70;80.87;97029.00;4106321;28;20309;-56
2022/01/04 03:40:59;;;;;;;2.00;1.85;;;;;;;9.69;80.88;97030.09;4105147;28;20223;-57
2022/01/04 03:43:00;;;;;;;2.15;1.80;;;;;;;9.66;80.88;97023.28;4107600;28;20206;-55
2022/01/04 03:45:03;;;;;;;1.60;1.50;;;;;;;9.67;81.28;97029.56;4108145;28;20206;-57
2022/01/04 03:47:05;;;;;;;2.00;1.83;;;;;;;9.65;81.04;97013.44;4123408;28;20211;-58
2022/01/04 03:49:07;;;;;;;2.00;1.70;;;;;;;9.69;81.25;97005.50;4109620;28;20277;-57
2022/01/04 03:51:10;;;;;;;1.40;1.30;;;;;;;9.69;81.18;97011.78;4128109;28;20306;-59
2022/01/04 03:53:11;;;;;;;2.70;1.60;;;;;;;9.64;81.21;96992.72;4121179;28;20206;-58
2022/01/04 03:55:13;;;;;;;1.52;1.42;;;;;;;9.65;81.39;97004.44;4115683;28;20236;-57
2022/01/04 03:57:15;;;;;;;1.50;1.40;;;;;;;9.70;81.05;97001.69;4110912;28;20206;-56
2022/01/04 03:59:17;;;;;;;2.80;1.60;;;;;;;9.64;80.92;96998.16;4110847;28;20279;-58
2022/01/04 04:01:19;;;;;;;4.35;1.90;;;;;;;9.63;81.13;96995.72;4107146;28;20222;-56
2022/01/04 04:03:21;;;;;;;2.20;1.50;;;;;;;9.66;80.88;96979.56;4122987;28;20226;-59
2022/01/04 04:05:22;;;;;;;1.40;1.30;;;;;;;9.65;81.01;96977.13;4105827;28;20544;-57
2022/01/04 04:07:24;;;;;;;1.40;1.30;;;;;;;9.63;81.25;96968.41;4095612;28;20227;-58
2022/01/04 04:09:26;;;;;;;1.95;1.27;;;;;;;9.64;80.83;96959.09;4106731;28;20227;-58
2022/01/04 04:11:27;;;;;;;1.95;1.77;;;;;;;9.60;81.25;96958.03;4123808;28;20225;-57
2022/01/04 04:13:29;;;;;;;1.67;1.30;;;;;;;9.66;80.97;96952.28;4124602;28;20217;-57
2022/01/04 04:15:31;;;;;;;1.58;1.48;;;;;;;9.69;81.14;96950.91;4113881;28;20210;-56
2022/01/04 04:17:33;;;;;;;1.20;1.08;;;;;;;9.63;81.16;96941.09;4112441;28;20207;-55
2022/01/04 04:19:35;;;;;;;1.75;1.65;;;;;;;9.55;81.47;96933.50;4107558;28;20573;-56
2022/01/04 04:21:37;;;;;;;1.48;1.38;;;;;;;9.54;81.90;96926.41;4110866;28;20554;-56
2022/01/04 04:23:39;;;;;;;1.77;1.38;;;;;;;9.55;81.46;96922.59;4108592;28;20254;-57
2022/01/04 04:25:41;;;;;;;1.60;1.50;;;;;;;9.58;81.70;96927.47;4108700;28;20290;-58
2022/01/04 04:27:42;;;;;;;1.30;1.20;;;;;;;9.60;81.50;96919.81;4125625;28;20635;-58
2022/01/04 04:29:44;;;;;;;1.70;1.60;;;;;;;9.57;81.67;96914.91;4108513;28;20207;-56
2022/01/04 04:31:46;;;;;;;1.00;0.98;;;;;;;9.59;81.64;96907.25;4091676;28;20215;-59
2022/01/04 04:33:47;;;;;;;1.27;1.17;;;;;;;9.61;81.37;96903.13;4108789;28;20211;-59
2022/01/04 04:35:49;;;;;;;1.35;1.25;;;;;;;9.63;81.26;96897.41;4110832;28;20217;-57
2022/01/04 04:37:51;;;;;;;2.83;1.20;;;;;;;9.65;81.32;96892.47;4111450;28;21826;-58
2022/01/04 04:39:52;;;;;;;1.52;1.42;;;;;;;9.64;81.40;96888.09;4123363;28;20202;-58
2022/01/04 04:41:54;;;;;;;1.15;1.10;;;;;;;9.63;81.23;96886.47;4124657;28;20245;-57
2022/01/04 04:43:56;;;;;;;1.35;1.25;;;;;;;9.65;81.58;96873.34;4109157;28;20218;-59
2022/01/04 04:45:57;;;;;;;0.98;0.93;;;;;;;9.67;80.82;96877.44;4105876;28;20301;-58
2022/01/04 04:47:59;;;;;;;1.20;1.10;;;;;;;9.69;81.15;96874.44;4107756;28;20238;-57
2022/01/04 04:50:01;;;;;;;1.50;1.17;;;;;;;9.70;81.17;96873.31;4108546;28;20262;-56
2022/01/04 04:52:03;;;;;;;1.30;1.20;;;;;;;9.65;81.47;96874.19;4091791;28;20211;-59
2022/01/04 04:54:05;;;;;;;0.95;0.93;;;;;;;9.67;81.63;96857.53;4108282;28;20836;-56
2022/01/04 04:56:07;;;;;;;1.30;1.20;;;;;;;9.69;81.68;96868.97;4109303;28;20210;-59
2022/01/04 04:58:10;;;;;;;1.02;1.02;;;;;;;9.65;81.29;96873.34;4092246;28;20230;-59
2022/01/04 05:00:12;;;;;;;0.80;0.80;;;;;;;9.67;81.32;96866.50;4113682;28;20297;-57
2022/01/04 05:02:14;;;;;;;1.20;1.10;;;;;;;9.67;81.62;96862.97;4108649;28;20214;-57
2022/01/04 05:04:16;;;;;;;1.00;0.90;;;;;;;9.70;81.55;96859.66;4121223;28;20214;-56
2022/01/04 05:06:17;;;;;;;1.02;0.95;;;;;;;9.70;81.83;96854.22;4121290;28;20298;-57
2022/01/04 05:08:19;;;;;;;0.80;0.80;;;;;;;9.72;81.45;96852.00;4105100;28;20289;-59
2022/01/04 05:10:21;;;;;;;1.00;0.85;;;;;;;9.70;81.65;96849.56;4107856;28;20665;-57
2022/01/04 05:12:22;;;;;;;0.95;0.95;;;;;;;9.74;81.69;96855.28;4123323;28;20210;-58
2022/01/04 05:14:24;;;;;;;1.00;0.90;;;;;;;9.75;81.76;96845.97;4107166;28;20214;-57
2022/01/04 05:16:26;;;;;;;1.25;1.15;;;;;;;9.71;81.88;96842.19;4110815;28;20256;-56
2022/01/04 05:18:28;;;;;;;1.08;0.98;;;;;;;9.68;81.76;96850.94;4111324;28;20222;-57
2022/01/04 05:20:29;;;;;;;2.38;0.93;;;;;;;9.69;81.70;96831.53;4107430;28;20301;-58
2022/01/04 05:22:31;;;;;;;4.38;0.82;;;;;;;9.73;81.60;96826.31;4105012;28;20242;-59
2022/01/04 05:24:33;;;;;;;0.80;0.80;;;;;;;9.74;81.88;96822.50;4120746;28;20210;-56
2022/01/04 05:26:35;;;;;;;1.02;1.02;;;;;;;9.68;81.83;96829.91;4105721;28;20217;-57
2022/01/04 05:28:38;;;;;;;1.08;1.00;;;;;;;9.69;81.79;96819.81;4118336;28;20270;-57
2022/01/04 05:30:40;;;;;;;1.20;0.88;;;;;;;9.71;81.82;96807.50;4109573;28;20219;-57
2022/01/04 05:32:42;;;;;;;0.80;0.80;;;;;;;9.75;81.62;96811.28;4109121;28;20211;-57
2022/01/04 05:34:43;;;;;;;2.63;1.02;;;;;;;9.74;81.55;96806.13;4108805;28;20215;-58
2022/01/04 05:36:45;;;;;;;1.00;1.00;;;;;;;9.78;81.56;96807.97;4109476;28;20219;-56
2022/01/04 05:38:47;;;;;;;0.80;0.80;;;;;;;9.78;81.97;96802.53;4125570;28;20657;-58
2022/01/04 05:40:49;;;;;;;0.88;0.88;;;;;;;9.78;81.57;96793.50;4096399;28;20231;-59
2022/01/04 05:42:51;;;;;;;1.10;1.10;;;;;;;9.73;81.82;96799.00;4092547;28;20470;-58
2022/01/04 05:44:52;;;;;;;1.10;1.00;;;;;;;9.72;82.02;96786.44;4123083;28;20724;-60
2022/01/04 05:46:54;;;;;;;1.08;0.90;;;;;;;9.77;81.51;96789.16;4121702;28;20214;-58
2022/01/04 05:48:56;;;;;;;0.88;0.88;;;;;;;9.81;81.48;96779.28;4110396;28;20242;-57
2022/01/04 05:50:59;;;;;;;0.85;0.75;;;;;;;9.82;81.71;96780.91;4110261;28;20206;-55
2022/01/04 05:53:06;;;;;;;0.90;0.90;;;;;;;9.82;81.90;96783.66;4111955;28;20258;-58
2022/01/04 05:55:09;;;;;;;0.80;0.80;;;;;;;9.79;81.92;96773.28;4126308;28;20256;-58
2022/01/04 05:57:10;;;;;;;1.00;1.00;;;;;;;9.78;81.93;96771.66;4111817;28;20250;-60
2022/01/04 05:59:12;;;;;;;0.88;0.88;;;;;;;9.82;81.90;96775.44;4101397;28;20333;-60
2022/01/04 06:01:14;;;;;;;1.08;1.00;;;;;;;9.81;81.72;96760.16;4106129;28;20214;-60
2022/01/04 06:03:16;;;;;;;0.98;0.88;;;;;;;9.82;81.92;96772.72;4106296;28;20704;-57
2022/01/04 06:05:18;;;;;;;0.93;0.93;;;;;;;9.79;82.23;96765.09;4126264;28;20276;-60
2022/01/04 06:07:20;;;;;;;1.80;1.70;;;;;;;9.77;81.86;96762.66;4125427;28;20210;-58
2022/01/04 06:09:26;;;;;;;0.60;0.60;;;;;;;9.84;81.93;96762.31;4108301;28;20242;-58
2022/01/04 06:11:54;;;;;;;0.90;0.90;;;;;;;9.82;81.82;96754.41;4106254;28;20207;-58
2022/01/04 06:16:10;;;;;;;1.10;1.00;;;;;;;9.86;81.40;96738.25;4126511;28;20229;-58
2022/01/04 06:18:12;;;;;;;1.67;1.02;;;;;;;9.87;81.89;96739.91;4122000;28;20253;-58
2022/01/04 06:20:15;;;;;;;0.73;0.73;;;;;;;9.86;81.48;96743.69;4106854;28;20199;-56
2022/01/04 06:22:17;;;;;;;1.52;1.00;;;;;;;9.87;81.64;96756.28;4123190;28;20194;-59
2022/01/04 06:24:19;;;;;;;1.30;0.93;;;;;;;9.87;81.62;96745.38;4111064;28;20308;-59
2022/01/04 06:26:20;;;;;;;0.80;0.80;;;;;;;9.85;81.80;96744.81;4095149;28;20215;-59
2022/01/04 06:28:22;;;;;;;1.20;0.70;;;;;;;9.88;81.69;96741.53;4123446;28;20236;-60
2022/01/04 06:30:24;;;;;;;1.23;1.10;;;;;;;9.82;82.05;96734.47;4102027;28;20240;-56
2022/01/04 06:32:26;;;;;;;0.85;0.77;;;;;;;9.91;81.81;96740.94;4107712;28;20550;-56
2022/01/04 06:34:27;;;;;;;1.65;0.93;;;;;;;9.87;81.58;96737.16;4087545;28;20794;-59
2022/01/04 06:36:29;;;;;;;1.00;1.00;;;;;;;9.85;82.08;96733.88;4092682;28;20219;-56
2022/01/04 06:38:31;;;;;;;1.02;1.02;;;;;;;9.86;81.69;96728.16;4099769;28;20317;-56
2022/01/04 06:40:32;;;;;;;1.33;1.00;;;;;;;9.88;81.73;96730.59;4122158;28;20675;-57
2022/01/04 06:42:34;;;;;;;1.15;1.08;;;;;;;9.87;81.84;96713.38;4113205;28;20194;-57
2022/01/04 06:44:36;;;;;;;1.13;1.05;;;;;;;9.86;81.97;96722.69;4109003;28;20211;-57
2022/01/04 06:46:38;;;;;;;1.02;0.93;;;;;;;9.90;81.95;96722.91;4107697;28;20215;-56
2022/01/04 06:48:41;;;;;;;1.00;1.00;;;;;;;9.89;81.64;96715.84;4109994;28;20305;-55
2022/01/04 06:50:43;;;;;;;1.00;1.00;;;;;;;9.87;81.82;96718.03;4111191;28;20216;-58
2022/01/04 06:52:44;;;;;;;1.10;1.10;;;;;;;9.88;81.80;96714.22;4110573;28;20210;-59
2022/01/04 06:54:49;;;;;;;0.95;0.95;;;;;;;9.86;81.62;96700.00;4111270;28;20261;-58
2022/01/04 06:56:57;;;;;;;0.85;0.85;;;;;;;9.86;81.72;96695.38;4112478;28;20286;-57
2022/01/04 06:58:59;;;;;;;0.90;0.90;;;;;;;9.92;81.40;96682.44;4110699;28;20623;-58
2022/01/04 07:01:00;;;;;;;1.10;0.90;;;;;;;9.89;81.35;96677.59;4111053;28;20218;-59
2022/01/04 07:03:03;;;;;;;0.82;0.82;;;;;;;9.91;81.26;96686.28;4109145;28;20210;-57
2022/01/04 07:05:06;;;;;;;1.33;1.23;;;;;;;9.89;81.42;96670.19;4111845;28;20285;-59
2022/01/04 07:07:07;;;;;;;0.93;0.93;;;;;;;9.88;81.90;96662.31;4107772;28;20269;-58
2022/01/04 07:09:10;;;;;;;0.80;0.80;;;;;;;9.86;81.91;96661.75;4110100;28;20672;-59
2022/01/04 07:11:15;;;;;;;0.93;0.93;;;;;;;9.86;81.94;96661.75;4124754;28;20210;-58
2022/01/04 07:13:17;;;;;;;1.10;1.00;;;;;;;9.88;81.83;96662.31;4109302;28;20577;-57
2022/01/04 07:15:18;;;;;;;1.08;1.08;;;;;;;9.92;81.56;96671.53;4109847;28;20238;-58
2022/01/04 07:17:20;;;;;;;1.55;1.30;;;;;;;9.91;80.96;96664.44;4108442;28;20754;-56
2022/01/04 07:19:23;;;;;;;1.10;1.00;;;;;;;9.90;81.17;96671.00;4108493;28;20296;-57
2022/01/04 07:21:24;;;;;;;1.10;1.10;;;;;;;9.93;81.04;96662.22;4126689;28;20217;-58
2022/01/04 07:23:27;;;;;;;1.13;1.13;;;;;;;9.92;81.29;96666.06;4113703;28;20214;-57
2022/01/04 07:25:29;;;;;;;1.20;1.10;;;;;;;9.94;81.35;96669.34;4110384;28;20214;-58
2022/01/04 07:27:31;;;;;;;0.77;0.77;;;;;;;9.95;81.61;96670.97;4111406;28;20575;-59
2022/01/04 07:29:33;;;;;;;0.98;0.88;;;;;;;9.93;81.48;96657.59;4106513;28;20577;-56
2022/01/04 07:31:35;;;;;;;1.20;1.10;;;;;;;9.95;81.31;96662.75;4109346;28;20207;-56
2022/01/04 07:33:38;;;;;;;0.73;0.73;;;;;;;9.94;81.28;96658.41;4125047;28;20214;-57
2022/01/04 07:35:40;;;;;;;1.08;1.00;;;;;;;9.96;81.08;96670.66;4110630;28;20310;-57
2022/01/04 07:37:42;;;;;;;1.83;1.33;;;;;;;9.94;81.52;96658.41;4111096;28;20844;-57
2022/01/04 07:39:44;;;;;;;1.02;0.93;;;;;;;9.94;81.60;96663.88;4126424;28;20202;-56
2022/01/04 07:41:45;;;;;;;1.02;0.90;;;;;;;9.90;81.63;96652.72;4108776;28;20238;-56
2022/01/04 07:43:47;;;;;;;4.28;1.02;;;;;;;9.94;81.66;96652.94;4109093;28;20202;-57
2022/01/04 07:45:49;;;;;;;0.98;0.98;;;;;;;9.96;81.51;96650.72;4110526;28;20215;-58
2022/01/04 07:47:51;;;;;;;0.90;0.90;;;;;;;9.95;81.44;96654.56;4109793;28;20282;-57
2022/01/04 07:49:53;;;;;;;1.02;0.80;;;;;;;9.92;81.43;96636.00;4109164;28;20223;-55
2022/01/04 07:51:54;;;;;;;1.38;1.10;;;;;;;9.96;81.55;96645.25;4125839;28;20210;-57
2022/01/04 07:53:56;;;;;;;1.13;0.80;;;;;;;9.94;81.39;96631.09;4121158;28;20631;-56
2022/01/04 07:55:58;;;;;;;0.90;0.90;;;;;;;9.99;81.42;96620.91;4125478;28;20711;-57
2022/01/04 07:58:00;;;;;;;1.05;0.95;;;;;;;9.95;81.25;96608.13;4124335;28;20720;-57
2022/01/04 08:00:05;;;;;;;1.35;1.02;;;;;;;9.99;81.46;96604.50;4106531;28;20220;-57
2022/01/04 08:02:07;;;;;;;1.05;0.95;;;;;;;10.00;81.35;96600.66;4105096;28;20245;-58
2022/01/04 08:04:09;;;;;;;1.00;1.00;;;;;;;10.01;81.52;96615.16;4109826;28;20215;-57
2022/01/04 08:06:11;;;;;;;0.98;0.98;;;;;;;10.00;81.63;96591.66;4108037;28;20242;-57
2022/01/04 08:08:14;;;;;;;0.80;0.80;;;;;;;10.05;81.38;96588.88;4106594;28;20230;-57
2022/01/04 08:10:17;;;;;;;0.98;0.93;;;;;;;10.10;81.07;96591.56;4123746;28;20664;-57
2022/01/04 08:12:19;;;;;;;0.70;0.70;;;;;;;10.08;81.19;96582.84;4126363;28;20595;-57
2022/01/04 08:14:21;;;;;;;1.88;1.00;;;;;;;10.11;81.32;96582.25;4129022;28;20257;-56
2022/01/04 08:16:22;;;;;;;1.80;1.10;;;;;;;10.12;80.98;96583.88;4112774;28;20211;-56
2022/01/04 08:18:24;;;;;;;0.75;0.75;;;;;;;10.13;81.19;96574.56;4094109;28;20246;-55
2022/01/04 08:20:26;;;;;;;0.80;0.80;;;;;;;10.09;81.27;96570.81;4129213;28;20277;-58
2022/01/04 08:22:32;;;;;;;0.90;0.90;;;;;;;10.13;81.44;96569.91;4128467;28;20249;-58
2022/01/04 08:24:34;;;;;;;1.63;0.95;;;;;;;10.08;81.37;96566.47;4112041;28;20250;-58
2022/01/04 08:26:36;;;;;;;1.15;1.02;;;;;;;10.10;81.53;96564.22;4113068;28;20206;-56
2022/01/04 08:28:38;;;;;;;1.05;1.05;;;;;;;10.12;81.34;96567.47;4112096;28;21173;-57
2022/01/04 08:30:41;;;;;;;2.90;1.75;;;;;;;10.10;81.60;96564.22;4111173;28;20649;-57
2022/01/04 08:32:43;;;;;;;1.13;1.10;;;;;;;10.12;81.58;96557.38;4113954;28;20211;-56
2022/01/04 08:34:45;;;;;;;1.00;1.00;;;;;;;10.14;81.54;96566.06;4112873;28;20650;-56
2022/01/04 08:36:47;;;;;;;1.10;1.00;;;;;;;10.18;81.25;96571.75;4113104;28;20294;-55
2022/01/04 08:38:49;;;;;;;0.85;0.82;;;;;;;10.20;81.20;96556.69;4129218;28;20221;-58
2022/01/04 08:40:51;;;;;;;1.42;1.00;;;;;;;10.20;81.33;96561.34;4129555;28;20297;-57
2022/01/04 08:42:53;;;;;;;1.17;1.08;;;;;;;10.21;81.16;96560.25;4114535;28;20681;-58
2022/01/04 08:44:55;;;;;;;1.65;1.45;;;;;;;10.19;81.33;96551.53;4130670;28;20607;-58
2022/01/04 08:47:02;;;;;;;1.20;1.10;;;;;;;10.21;81.39;96560.25;4113106;28;20433;-57
2022/01/04 08:49:07;;;;;;;2.30;1.63;;;;;;;10.19;81.49;96557.81;4113090;28;20581;-57
2022/01/04 08:51:09;;;;;;;1.63;1.10;;;;;;;10.20;81.46;96553.97;4129100;28;20672;-58
2022/01/04 08:53:13;;;;;;;1.98;1.30;;;;;;;10.25;81.13;96545.72;4113108;28;20206;-57
2022/01/04 08:55:14;;;;;;;1.40;1.30;;;;;;;10.24;81.31;96549.56;4129050;28;20830;-58
2022/01/04 08:57:16;;;;;;;0.93;0.93;;;;;;;10.22;81.69;96534.56;4127621;28;20206;-57
2022/01/04 08:59:18;;;;;;;1.48;1.35;;;;;;;10.23;81.62;96541.63;4112700;28;20712;-56
2022/01/04 09:01:22;;;;;;;1.42;1.30;;;;;;;10.26;81.16;96543.75;4112008;28;20226;-57
2022/01/04 09:03:24;;;;;;;0.93;0.93;;;;;;;10.28;81.12;96527.91;4108905;28;20218;-60
2022/01/04 09:05:27;;;;;;;1.38;1.00;;;;;;;10.27;81.34;96546.22;4125449;28;20683;-59
2022/01/04 09:07:32;;;;;;;1.40;1.30;;;;;;;10.30;81.32;96544.81;4113988;28;20210;-59
2022/01/04 09:09:34;;;;;;;1.00;1.00;;;;;;;10.30;81.09;96531.16;4112600;28;20679;-58
2022/01/04 09:11:55;;;;;;;0.90;0.90;;;;;;;10.29;81.55;96551.38;4127080;28;20225;-57
2022/01/04 09:20:55;;;;;;;1.27;1.17;;;;;;;10.29;81.51;96548.66;4127958;28;20198;-56
2022/01/04 09:22:57;;;;;;;1.73;1.63;;;;;;;10.28;81.56;96544.31;4112838;28;20643;-57
2022/01/04 09:24:58;;;;;;;1.75;1.10;;;;;;;10.26;81.48;96558.25;4113143;28;20207;-57
2022/01/04 09:27:05;;;;;;;2.35;1.20;;;;;;;10.22;81.80;96556.41;4127221;28;20206;-57
2022/01/04 09:29:07;;;;;;;1.83;1.40;;;;;;;10.20;81.74;96558.59;4125355;28;20222;-57
2022/01/04 09:31:09;;;;;;;3.65;1.30;;;;;;;10.20;81.81;96558.59;4097530;28;20223;-58
2022/01/04 09:33:11;;;;;;;1.15;1.05;;;;;;;10.24;81.60;96562.38;4113185;28;20640;-56
2022/01/04 09:35:14;;;;;;;1.48;1.30;;;;;;;10.22;81.66;96572.81;4107073;28;20331;-58
2022/01/04 09:37:16;;;;;;;2.00;1.13;;;;;;;10.21;81.81;96571.19;4122827;28;20229;-56
2022/01/04 09:39:23;;;;;;;1.90;1.13;;;;;;;10.23;81.75;96578.00;4127081;28;20226;-56
2022/01/04 09:41:26;;;;;;;1.73;1.20;;;;;;;10.31;81.60;96571.03;4105706;28;20269;-56
2022/01/04 09:43:28;;;;;;;1.30;1.20;;;;;;;10.27;81.54;96580.94;4092993;28;20203;-56
2022/01/04 09:45:30;;;;;;;1.25;1.10;;;;;;;10.27;81.83;96589.16;4124903;28;20210;-56
2022/01/04 09:47:33;;;;;;;1.48;1.20;;;;;;;10.23;81.72;96579.91;4111404;28;20210;-56
2022/01/04 09:49:34;;;;;;;1.00;1.00;;;;;;;10.27;81.45;96589.16;4127141;28;20288;-57
2022/01/04 09:51:39;;;;;;;1.23;1.10;;;;;;;10.21;81.80;96585.66;4112247;28;20255;-55
2022/01/04 09:53:41;;;;;;;1.40;1.27;;;;;;;10.31;81.73;96595.63;4124607;28;20758;-57